sensor_id;sensor_type;location;lat;lon;timestamp;temperature;humidity
23769;DHT22;12064;50.890;5.424;2022-09-02T00:06:15;29.00;58.10
23769;DHT22;12064;50.890;5.424;2022-09-02T00:15:09;29.10;57.90
23769;DHT22;12064;50.890;5.424;2022-09-02T00:24:04;29.10;57.90
23769;DHT22;12064;50.890;5.424;2022-09-02T00:32:55;29.00;57.80
23769;DHT22;12064;50.890;5.424;2022-09-02T00:41:49;29.10;57.90
23769;DHT22;12064;50.890;5.424;2022-09-02T00:51:07;29.00;57.60
23769;DHT22;12064;50.890;5.424;2022-09-02T01:09:14;28.70;57.90
23769;DHT22;12064;50.890;5.424;2022-09-02T01:18:07;28.90;57.60
23769;DHT22;12064;50.890;5.424;2022-09-02T01:26:58;28.80;57.80
23769;DHT22;12064;50.890;5.424;2022-09-02T01:35:50;28.90;57.60
23769;DHT22;12064;50.890;5.424;2022-09-02T01:44:44;29.00;57.60
23769;DHT22;12064;50.890;5.424;2022-09-02T01:53:35;28.80;57.70
23769;DHT22;12064;50.890;5.424;2022-09-02T02:02:26;28.90;57.60
23769;DHT22;12064;50.890;5.424;2022-09-02T02:11:19;29.00;57.70
23769;DHT22;12064;50.890;5.424;2022-09-02T02:20:12;28.80;57.60
23769;DHT22;12064;50.890;5.424;2022-09-02T02:29:10;28.80;57.60
23769;DHT22;12064;50.890;5.424;2022-09-02T02:38:01;29.00;57.40
23769;DHT22;12064;50.890;5.424;2022-09-02T02:46:52;28.80;57.60
23769;DHT22;12064;50.890;5.424;2022-09-02T02:55:44;29.00;57.40
23769;DHT22;12064;50.890;5.424;2022-09-02T03:04:35;28.90;57.40
23769;DHT22;12064;50.890;5.424;2022-09-02T03:13:27;28.80;57.40
23769;DHT22;12064;50.890;5.424;2022-09-02T03:22:18;28.80;57.50
23769;DHT22;12064;50.890;5.424;2022-09-02T03:31:17;28.70;57.60
23769;DHT22;12064;50.890;5.424;2022-09-02T03:40:12;28.80;57.40
23769;DHT22;12064;50.890;5.424;2022-09-02T03:49:03;28.70;57.40
23769;DHT22;12064;50.890;5.424;2022-09-02T03:57:54;28.80;58.00
23769;DHT22;12064;50.890;5.424;2022-09-02T04:06:50;28.70;57.40
23769;DHT22;12064;50.890;5.424;2022-09-02T04:16:09;28.60;57.70
23769;DHT22;12064;50.890;5.424;2022-09-02T04:25:00;28.80;57.30
23769;DHT22;12064;50.890;5.424;2022-09-02T04:33:52;29.00;56.50
23769;DHT22;12064;50.890;5.424;2022-09-02T04:43:05;29.00;56.10
23769;DHT22;12064;50.890;5.424;2022-09-02T04:51:55;28.90;56.20
23769;DHT22;12064;50.890;5.424;2022-09-02T05:00:48;29.00;55.60
23769;DHT22;12064;50.890;5.424;2022-09-02T05:09:39;28.60;56.40
23769;DHT22;12064;50.890;5.424;2022-09-02T05:18:29;28.90;55.60
23769;DHT22;12064;50.890;5.424;2022-09-02T05:27:20;28.90;55.40
23769;DHT22;12064;50.890;5.424;2022-09-02T05:36:15;29.00;55.30
23769;DHT22;12064;50.890;5.424;2022-09-02T05:45:11;29.00;55.20
23769;DHT22;12064;50.890;5.424;2022-09-02T05:54:03;28.90;55.20
23769;DHT22;12064;50.890;5.424;2022-09-02T06:02:54;28.90;55.50
23769;DHT22;12064;50.890;5.424;2022-09-02T06:11:49;28.80;55.80
23769;DHT22;12064;50.890;5.424;2022-09-02T06:20:41;28.80;55.80
23769;DHT22;12064;50.890;5.424;2022-09-02T06:29:32;28.80;56.10
23769;DHT22;12064;50.890;5.424;2022-09-02T06:38:25;28.80;56.10
23769;DHT22;12064;50.890;5.424;2022-09-02T06:47:16;28.80;56.20
23769;DHT22;12064;50.890;5.424;2022-09-02T06:56:07;28.60;56.50
23769;DHT22;12064;50.890;5.424;2022-09-02T07:05:00;28.60;56.60
23769;DHT22;12064;50.890;5.424;2022-09-02T07:14:01;28.60;56.80
23769;DHT22;12064;50.890;5.424;2022-09-02T07:22:51;28.60;56.80
23769;DHT22;12064;50.890;5.424;2022-09-02T07:31:47;28.60;57.00
23769;DHT22;12064;50.890;5.424;2022-09-02T07:40:39;28.70;57.60
23769;DHT22;12064;50.890;5.424;2022-09-02T07:49:32;28.70;57.00
23769;DHT22;12064;50.890;5.424;2022-09-02T07:58:24;28.80;57.10
23769;DHT22;12064;50.890;5.424;2022-09-02T08:07:15;29.00;56.90
23769;DHT22;12064;50.890;5.424;2022-09-02T08:16:14;29.00;56.90
23769;DHT22;12064;50.890;5.424;2022-09-02T08:25:09;29.00;57.00
23769;DHT22;12064;50.890;5.424;2022-09-02T08:34:00;29.10;57.10
23769;DHT22;12064;50.890;5.424;2022-09-02T08:42:55;29.10;57.10
23769;DHT22;12064;50.890;5.424;2022-09-02T08:51:56;29.10;57.20
23769;DHT22;12064;50.890;5.424;2022-09-02T09:01:17;29.00;57.40
23769;DHT22;12064;50.890;5.424;2022-09-02T09:28:40;29.10;57.40
23769;DHT22;12064;50.890;5.424;2022-09-02T09:37:38;29.20;57.30
23769;DHT22;12064;50.890;5.424;2022-09-02T09:46:30;29.30;57.30
23769;DHT22;12064;50.890;5.424;2022-09-02T09:55:23;29.30;57.30
23769;DHT22;12064;50.890;5.424;2022-09-02T10:04:28;29.40;57.20
23769;DHT22;12064;50.890;5.424;2022-09-02T10:13:23;29.30;57.40
23769;DHT22;12064;50.890;5.424;2022-09-02T10:31:32;29.50;57.20
23769;DHT22;12064;50.890;5.424;2022-09-02T10:40:54;29.40;57.50
23769;DHT22;12064;50.890;5.424;2022-09-02T11:08:04;29.60;57.70
23769;DHT22;12064;50.890;5.424;2022-09-02T11:17:08;29.50;57.80
23769;DHT22;12064;50.890;5.424;2022-09-02T11:26:15;29.50;57.90
23769;DHT22;12064;50.890;5.424;2022-09-02T11:35:11;29.30;58.40
23769;DHT22;12064;50.890;5.424;2022-09-02T11:53:39;29.40;58.20
23769;DHT22;12064;50.890;5.424;2022-09-02T12:11:41;29.50;58.10
23769;DHT22;12064;50.890;5.424;2022-09-02T12:29:33;29.50;58.10
23769;DHT22;12064;50.890;5.424;2022-09-02T12:38:34;29.60;58.10
23769;DHT22;12064;50.890;5.424;2022-09-02T12:47:39;29.60;58.10
23769;DHT22;12064;50.890;5.424;2022-09-02T12:56:34;29.50;58.20
23769;DHT22;12064;50.890;5.424;2022-09-02T13:05:52;29.50;58.10
23769;DHT22;12064;50.890;5.424;2022-09-02T13:33:21;29.60;58.30
23769;DHT22;12064;50.890;5.424;2022-09-02T13:42:23;29.50;58.20
23769;DHT22;12064;50.890;5.424;2022-09-02T13:51:14;29.50;58.40
23769;DHT22;12064;50.890;5.424;2022-09-02T14:00:05;29.60;58.20
23769;DHT22;12064;50.890;5.424;2022-09-02T14:09:03;29.50;58.30
23769;DHT22;12064;50.890;5.424;2022-09-02T14:27:20;29.50;59.10
23769;DHT22;12064;50.890;5.424;2022-09-02T14:36:41;29.50;58.50
23769;DHT22;12064;50.890;5.424;2022-09-02T14:45:33;29.30;58.90
23769;DHT22;12064;50.890;5.424;2022-09-02T14:54:37;29.50;58.60
23769;DHT22;12064;50.890;5.424;2022-09-02T15:03:36;29.40;58.90
23769;DHT22;12064;50.890;5.424;2022-09-02T15:12:29;29.60;59.10
23769;DHT22;12064;50.890;5.424;2022-09-02T15:21:21;29.70;59.00
23769;DHT22;12064;50.890;5.424;2022-09-02T15:30:15;29.50;59.70
23769;DHT22;12064;50.890;5.424;2022-09-02T15:39:05;29.50;59.40
23769;DHT22;12064;50.890;5.424;2022-09-02T15:47:57;29.50;59.50
23769;DHT22;12064;50.890;5.424;2022-09-02T15:56:54;29.50;59.60
23769;DHT22;12064;50.890;5.424;2022-09-02T16:05:45;29.50;59.70
23769;DHT22;12064;50.890;5.424;2022-09-02T16:14:36;29.60;59.60
23769;DHT22;12064;50.890;5.424;2022-09-02T16:23:27;29.70;59.50
23769;DHT22;12064;50.890;5.424;2022-09-02T16:32:17;29.70;59.60
23769;DHT22;12064;50.890;5.424;2022-09-02T16:41:24;29.50;60.00
23769;DHT22;12064;50.890;5.424;2022-09-02T16:50:16;29.40;60.00
23769;DHT22;12064;50.890;5.424;2022-09-02T16:59:10;29.50;59.80
23769;DHT22;12064;50.890;5.424;2022-09-02T17:08:05;29.70;59.70
23769;DHT22;12064;50.890;5.424;2022-09-02T17:16:56;29.80;59.80
23769;DHT22;12064;50.890;5.424;2022-09-02T17:25:46;29.70;59.70
23769;DHT22;12064;50.890;5.424;2022-09-02T17:34:37;29.60;59.80
23769;DHT22;12064;50.890;5.424;2022-09-02T17:43:30;29.80;59.70
23769;DHT22;12064;50.890;5.424;2022-09-02T17:52:27;29.70;59.70
23769;DHT22;12064;50.890;5.424;2022-09-02T18:10:55;29.60;59.60
23769;DHT22;12064;50.890;5.424;2022-09-02T18:20:22;29.60;59.50
23769;DHT22;12064;50.890;5.424;2022-09-02T18:39:13;29.60;59.80
23769;DHT22;12064;50.890;5.424;2022-09-02T18:48:27;29.50;59.90
23769;DHT22;12064;50.890;5.424;2022-09-02T18:57:20;29.60;59.80
23769;DHT22;12064;50.890;5.424;2022-09-02T19:06:17;29.30;56.70
23769;DHT22;12064;50.890;5.424;2022-09-02T19:15:11;28.90;52.40
23769;DHT22;12064;50.890;5.424;2022-09-02T19:24:07;28.70;50.60
23769;DHT22;12064;50.890;5.424;2022-09-02T19:32:59;28.50;50.10
23769;DHT22;12064;50.890;5.424;2022-09-02T19:41:50;28.70;49.70
23769;DHT22;12064;50.890;5.424;2022-09-02T19:50:43;28.80;49.10
23769;DHT22;12064;50.890;5.424;2022-09-02T19:59:48;28.60;49.20
23769;DHT22;12064;50.890;5.424;2022-09-02T20:08:39;28.90;48.90
23769;DHT22;12064;50.890;5.424;2022-09-02T20:17:30;29.10;48.70
23769;DHT22;12064;50.890;5.424;2022-09-02T20:45:26;28.70;50.20
23769;DHT22;12064;50.890;5.424;2022-09-02T21:04:12;28.80;50.60
23769;DHT22;12064;50.890;5.424;2022-09-02T21:22:29;29.20;50.50
23769;DHT22;12064;50.890;5.424;2022-09-02T21:40:19;29.10;50.40
23769;DHT22;12064;50.890;5.424;2022-09-02T22:08:36;29.00;50.50
23769;DHT22;12064;50.890;5.424;2022-09-02T22:35:54;28.80;50.60
23769;DHT22;12064;50.890;5.424;2022-09-02T22:45:02;28.80;50.70
23769;DHT22;12064;50.890;5.424;2022-09-02T22:54:17;28.80;50.70
23769;DHT22;12064;50.890;5.424;2022-09-02T23:21:56;28.70;51.40
23769;DHT22;12064;50.890;5.424;2022-09-02T23:40:25;28.70;50.90
23769;DHT22;12064;50.890;5.424;2022-09-02T23:49:39;28.50;51.10
23769;DHT22;12064;50.890;5.424;2022-09-02T23:59:03;28.50;51.20
